KLGU

Logan-Cache Airport

Logan, Utah, USA
METAR KLGU 170651Z AUTO 02004KT 5SM BR CLR M10/M12 A3019 RMK AO2 SLP272 T11001122 410221144 $
Observed Flight Rules
Dec-17 @ 06:51 UTC (39 minutes ago) Marginal Visual Flight Rules
Wind Visibility Clouds Conditions
20° at 4 knots 5 miles
  • Clear skies
  • Mist
Temperatures Readings
Current -10°C / 14°F
Dewpoint -12°C / 10°F
Humidity 85%
Altimeter 30.19" Hg
Pressure 1027.2 hPa
Elevation 1355
METAR KLGU 170651Z AUTO 02004KT 5SM BR CLR M10/M12 A3019 RMK AO2 SLP272 T11001122 410221144 $
Observed Flight Rules
Dec-17 @ 06:51 UTC
(39 minutes ago)
MVFR
Wind Visibility
20° at 4 knots 5 miles
Clouds
  • Clear skies
Conditions
  • Mist
Temperature Dewpoint
-10°C / 14°F -12°C / 10°F
Humidity Altimeter Pressure
85% 30.19" Hg 1027.2 hPa